Time;durP1;ratioP1;P1;durP2;ratioP2;P2;SDS_P1;SDS_P2;PMS_P1;PMS_P2;Temp;Humidity;BMP_temperature;BMP_pressure;BME280_temperature;BME280_humidity;BME280_pressure;Samples;Min_cycle;Max_cycle;Signal;HPM_P1;HPM_P2
2022/09/18 00:02:08;;;;;;;5.70;1.10;;;10.50;98.30;;;;;;4992350;28;20422;-57
2022/09/18 00:04:34;;;;;;;6.00;1.27;;;11.10;99.90;;;;;;4992998;28;20406;-56
2022/09/18 00:06:59;;;;;;;8.80;1.60;;;10.40;99.90;;;;;;4992574;28;20402;-57
2022/09/18 00:09:25;;;;;;;4.60;1.20;;;10.30;99.90;;;;;;4992205;28;20823;-57
2022/09/18 00:11:50;;;;;;;7.70;1.80;;;10.40;99.90;;;;;;4992885;28;20418;-57
2022/09/18 00:14:20;;;;;;;6.80;1.70;;;10.40;99.90;;;;;;4991755;28;20411;-57
2022/09/18 00:16:46;;;;;;;4.85;1.20;;;10.40;99.90;;;;;;4991534;28;20394;-57
2022/09/18 00:19:13;;;;;;;6.43;1.70;;;11.70;99.90;;;;;;4991905;28;20403;-57
2022/09/18 00:21:45;;;;;;;6.20;1.67;;;10.40;99.90;;;;;;4992623;28;20379;-57
2022/09/18 00:24:11;;;;;;;7.93;2.03;;;10.40;97.80;;;;;;4991247;28;20405;-57
2022/09/18 00:26:37;;;;;;;5.93;1.60;;;10.40;90.70;;;;;;4992606;28;20872;-57
2022/09/18 00:29:04;;;;;;;7.68;1.55;;;10.40;73.00;;;;;;4992174;28;20470;-57
2022/09/18 00:31:32;;;;;;;4.60;1.20;;;10.40;61.20;;;;;;4991962;28;20406;-57
2022/09/18 00:33:59;;;;;;;5.30;1.40;;;10.30;98.10;;;;;;4992788;28;20403;-57
2022/09/18 00:36:26;;;;;;;6.80;1.85;;;10.30;99.90;;;;;;4990701;28;20413;-57
2022/09/18 00:38:53;;;;;;;6.22;1.52;;;10.30;99.90;;;;;;4992554;28;20397;-57
2022/09/18 00:41:24;;;;;;;7.00;1.50;;;10.30;99.90;;;;;;4992137;28;20386;-57
2022/09/18 00:44:00;;;;;;;5.20;1.80;;;10.30;99.90;;;;;;4992059;28;20737;-57
2022/09/18 00:46:32;;;;;;;7.07;1.60;;;10.30;99.90;;;;;;4989246;28;20401;-57
2022/09/18 00:49:12;;;;;;;6.60;1.90;;;10.40;90.80;;;;;;4991920;28;20399;-57
2022/09/18 00:51:38;;;;;;;8.03;1.80;;;10.40;80.70;;;;;;4991786;28;20409;-57
2022/09/18 00:54:19;;;;;;;6.80;1.80;;;10.40;98.00;;;;;;4992087;28;20879;-57
2022/09/18 00:56:45;;;;;;;6.18;1.70;;;10.80;76.50;;;;;;4990019;28;20922;-57
2022/09/18 00:59:14;;;;;;;6.22;1.60;;;10.40;92.30;;;;;;4991930;28;20462;-57
2022/09/18 01:01:40;;;;;;;6.10;1.42;;;10.40;99.90;;;;;;4990897;28;20425;-57
2022/09/18 01:04:10;;;;;;;6.10;1.70;;;11.10;99.90;;;;;;4992017;28;20744;-57
2022/09/18 01:06:49;;;;;;;8.20;1.90;;;10.30;99.90;;;;;;4992556;28;20470;-57
2022/09/18 01:09:21;;;;;;;6.70;1.80;;;10.30;92.10;;;;;;4991148;28;20411;-56
2022/09/18 01:11:54;;;;;;;7.47;1.55;;;10.40;35.00;;;;;;4991695;28;20419;-57
2022/09/18 01:14:35;;;;;;;8.18;1.70;;;10.30;10.30;;;;;;4990819;28;20391;-57
2022/09/18 01:17:21;;;;;;;7.63;1.75;;;10.40;1.00;;;;;;4991017;28;20398;-57
2022/09/18 01:20:16;;;;;;;8.40;1.33;;;10.40;1.00;;;;;;4980910;28;20406;-57
2022/09/18 01:23:03;;;;;;;7.65;1.42;;;10.40;1.00;;;;;;4990791;28;20930;-56
2022/09/18 01:25:41;;;;;;;6.55;1.60;;;10.20;1.00;;;;;;4989216;28;20387;-57
2022/09/18 01:28:36;;;;;;;4.80;1.20;;;10.30;1.00;;;;;;4989323;28;20406;-57
2022/09/18 01:31:08;;;;;;;5.65;1.58;;;10.30;1.00;;;;;;4984400;28;20433;-57
2022/09/18 01:34:02;;;;;;;8.00;2.03;;;10.30;1.00;;;;;;4991207;28;20558;-57
2022/09/18 01:36:33;;;;;;;7.78;1.40;;;10.30;1.00;;;;;;4989194;28;20414;-57
2022/09/18 01:39:10;;;;;;;6.55;1.30;;;10.30;1.00;;;;;;4991799;28;20383;-57
2022/09/18 01:41:39;;;;;;;6.60;1.35;;;10.20;1.00;;;;;;4990066;28;20891;-57
2022/09/18 01:44:12;;;;;;;5.57;1.27;;;10.40;1.00;;;;;;4970659;28;20430;-57
2022/09/18 01:46:41;;;;;;;5.88;1.48;;;9.90;69.90;;;;;;4991584;28;20427;-57
2022/09/18 01:49:19;;;;;;;6.20;1.48;;;10.00;92.30;;;;;;4990701;28;20541;-57
2022/09/18 01:51:53;;;;;;;7.40;1.60;;;10.00;99.20;;;;;;4989096;28;20379;-56
2022/09/18 01:54:23;;;;;;;7.90;1.70;;;10.00;97.40;;;;;;4990166;28;20465;-58
2022/09/18 01:56:56;;;;;;;4.75;1.45;;;10.00;99.90;;;;;;4990668;28;20398;-58
2022/09/18 01:59:36;;;;;;;5.68;1.48;;;9.90;99.90;;;;;;4990253;28;20430;-56
2022/09/18 02:02:05;;;;;;;5.10;1.20;;;9.90;99.90;;;;;;4990489;28;20418;-57
2022/09/18 02:04:35;;;;;;;8.20;1.80;;;9.90;99.90;;;;;;4990030;28;20394;-57
2022/09/18 02:07:10;;;;;;;6.38;1.85;;;10.10;99.90;;;;;;4990560;28;20393;-57
2022/09/18 02:09:36;;;;;;;6.68;1.50;;;10.10;99.90;;;;;;4991192;28;20398;-57
2022/09/18 02:12:04;;;;;;;4.82;1.52;;;10.10;99.90;;;;;;4990569;28;20498;-57
2022/09/18 02:14:46;;;;;;;9.27;2.53;;;10.10;99.90;;;;;;4990009;28;20466;-57
2022/09/18 02:17:23;;;;;;;7.70;2.08;;;10.00;99.90;;;;;;4988465;28;20402;-57
2022/09/18 02:19:59;;;;;;;4.57;1.52;;;10.00;99.90;;;;;;4968844;28;20408;-57
2022/09/18 02:22:29;;;;;;;7.60;1.80;;;9.90;99.90;;;;;;4987294;28;20394;-56
2022/09/18 02:24:58;;;;;;;6.97;1.60;;;9.80;99.90;;;;;;4990379;28;20895;-57
2022/09/18 02:27:25;;;;;;;8.75;1.75;;;9.90;99.90;;;;;;4976591;28;20419;-57
2022/09/18 02:29:50;;;;;;;4.68;1.55;;;10.00;99.90;;;;;;4988526;28;20413;-57
2022/09/18 02:32:16;;;;;;;6.70;1.87;;;10.00;99.90;;;;;;4989934;28;20911;-57
2022/09/18 02:34:42;;;;;;;10.52;1.65;;;10.00;99.90;;;;;;4989774;28;20417;-57
2022/09/18 02:37:28;;;;;;;5.90;1.67;;;10.20;99.90;;;;;;4970844;28;20412;-57
2022/09/18 02:40:18;;;;;;;5.50;1.77;;;10.00;99.90;;;;;;4980965;28;20549;-57
2022/09/18 02:42:56;;;;;;;6.20;2.23;;;10.00;99.90;;;;;;4985063;28;20382;-57
2022/09/18 02:45:29;;;;;;;4.53;1.60;;;10.00;99.90;;;;;;4989618;28;20398;-57
2022/09/18 02:48:12;;;;;;;5.70;1.80;;;10.00;99.90;;;;;;4990364;28;20405;-57
2022/09/18 02:51:00;;;;;;;4.82;1.30;;;10.00;99.90;;;;;;4990149;28;20402;-57
2022/09/18 02:53:51;;;;;;;5.50;1.80;;;10.00;99.90;;;;;;4986644;28;20414;-56
2022/09/18 02:56:22;;;;;;;5.00;1.20;;;10.80;99.90;;;;;;4971490;28;20410;-57
2022/09/18 02:58:50;;;;;;;4.22;1.38;;;10.00;99.90;;;;;;4988458;28;20398;-57
2022/09/18 03:01:18;;;;;;;8.40;1.80;;;9.90;99.90;;;;;;4995719;28;20422;-56
2022/09/18 03:03:47;;;;;;;5.55;1.70;;;10.00;99.90;;;;;;4994024;28;21140;-57
2022/09/18 03:06:12;;;;;;;5.03;1.50;;;10.10;99.90;;;;;;4996592;28;20382;-57
2022/09/18 03:08:38;;;;;;;7.87;1.60;;;10.20;99.90;;;;;;4996164;28;20444;-56
2022/09/18 03:11:04;;;;;;;5.20;1.48;;;10.10;99.90;;;;;;4996923;28;20519;-56
2022/09/18 03:13:30;;;;;;;4.80;1.70;;;10.20;99.90;;;;;;4995509;28;20410;-58
2022/09/18 03:15:56;;;;;;;7.00;1.50;;;10.30;99.90;;;;;;4996685;28;20740;-57
2022/09/18 03:18:22;;;;;;;5.97;1.80;;;9.90;99.90;;;;;;4995572;28;20394;-57
2022/09/18 03:20:48;;;;;;;5.35;2.17;;;10.20;99.90;;;;;;4996414;28;20405;-57
2022/09/18 03:23:13;;;;;;;6.80;1.70;;;10.00;99.90;;;;;;4995722;28;20402;-56
2022/09/18 03:25:39;;;;;;;4.70;1.60;;;10.10;99.90;;;;;;4996367;28;20466;-56
2022/09/18 03:28:04;;;;;;;7.80;1.60;;;10.20;99.90;;;;;;4995147;28;20399;-56
2022/09/18 03:30:30;;;;;;;5.50;1.60;;;10.20;99.90;;;;;;4995578;28;20669;-56
2022/09/18 03:32:57;;;;;;;5.60;1.70;;;10.20;99.90;;;;;;4996398;28;20463;-56
2022/09/18 03:35:22;;;;;;;6.10;1.90;;;10.10;99.90;;;;;;4995696;28;20429;-56
2022/09/18 03:37:48;;;;;;;4.95;1.50;;;10.10;99.90;;;;;;4996183;28;20824;-56
2022/09/18 03:40:14;;;;;;;6.00;1.50;;;10.10;99.90;;;;;;4995398;28;20397;-56
2022/09/18 03:42:45;;;;;;;5.20;1.70;;;10.10;99.90;;;;;;4995384;28;20896;-57
2022/09/18 03:45:11;;;;;;;6.67;1.60;;;10.00;99.90;;;;;;4996186;28;20417;-57
2022/09/18 03:47:38;;;;;;;6.20;1.65;;;10.00;99.90;;;;;;4995431;28;20811;-57
2022/09/18 03:50:05;;;;;;;6.35;1.60;;;10.00;99.90;;;;;;4993703;28;20398;-56
2022/09/18 03:52:32;;;;;;;6.43;2.10;;;10.10;99.90;;;;;;4994918;28;20829;-58
2022/09/18 03:54:58;;;;;;;6.22;1.40;;;10.10;99.90;;;;;;4996172;28;20387;-57
2022/09/18 03:57:24;;;;;;;5.00;1.40;;;10.10;99.90;;;;;;4993131;28;20394;-57
2022/09/18 03:59:49;;;;;;;5.53;1.80;;;10.20;99.90;;;;;;4994673;28;20393;-56
2022/09/18 04:02:15;;;;;;;5.20;1.60;;;10.10;99.90;;;;;;4995283;28;20433;-57
2022/09/18 04:04:41;;;;;;;6.30;1.80;;;10.10;99.90;;;;;;4993792;28;20400;-56
2022/09/18 04:07:07;;;;;;;7.55;2.00;;;10.00;99.90;;;;;;4995942;28;20394;-57
2022/09/18 04:09:33;;;;;;;5.63;1.60;;;10.10;99.90;;;;;;4994873;28;20946;-56
2022/09/18 04:11:59;;;;;;;5.83;1.70;;;10.00;99.90;;;;;;4993220;28;20418;-57
2022/09/18 04:14:24;;;;;;;5.80;1.70;;;10.10;99.90;;;;;;4992792;28;20751;-56
2022/09/18 04:16:50;;;;;;;6.80;1.60;;;10.10;99.90;;;;;;4992483;28;20399;-56
2022/09/18 04:19:16;;;;;;;4.40;1.30;;;10.00;99.90;;;;;;4973514;28;20404;-56
2022/09/18 04:21:42;;;;;;;4.60;1.40;;;10.40;99.90;;;;;;4992767;28;20394;-57
2022/09/18 04:24:07;;;;;;;6.20;1.80;;;10.00;99.90;;;;;;4992389;28;20399;-56
2022/09/18 04:26:36;;;;;;;7.05;2.05;;;10.10;99.90;;;;;;4992293;28;20430;-57
2022/09/18 04:29:02;;;;;;;4.82;1.80;;;10.10;99.90;;;;;;4989918;28;20383;-57
2022/09/18 04:31:28;;;;;;;5.80;1.90;;;10.10;99.90;;;;;;4991292;28;20892;-57
2022/09/18 04:33:53;;;;;;;6.30;1.90;;;10.10;99.90;;;;;;4987344;28;20420;-56
2022/09/18 04:36:19;;;;;;;5.78;1.67;;;10.80;99.90;;;;;;4992422;28;20493;-56
2022/09/18 04:38:44;;;;;;;5.63;2.20;;;10.10;99.90;;;;;;4990808;28;20398;-56
2022/09/18 04:41:10;;;;;;;8.40;2.00;;;10.00;99.90;;;;;;4989898;28;20394;-57
2022/09/18 04:43:36;;;;;;;6.27;1.93;;;10.00;99.90;;;;;;4991741;28;20391;-57
2022/09/18 04:46:02;;;;;;;5.95;2.20;;;10.00;99.90;;;;;;4992013;28;20788;-57
2022/09/18 04:48:27;;;;;;;5.50;2.10;;;10.00;99.90;;;;;;4991737;28;20467;-57
2022/09/18 04:50:53;;;;;;;6.90;2.10;;;10.00;99.90;;;;;;4992367;28;20426;-56
2022/09/18 04:53:19;;;;;;;7.00;2.13;;;10.30;99.90;;;;;;4991643;28;20418;-56
2022/09/18 04:55:46;;;;;;;7.20;1.90;;;10.10;99.90;;;;;;4991658;28;20410;-57
2022/09/18 04:58:14;;;;;;;7.22;1.90;;;10.10;99.90;;;;;;4992153;28;20422;-57
2022/09/18 05:00:39;;;;;;;6.75;2.00;;;10.10;99.90;;;;;;4991327;28;20469;-57
2022/09/18 05:03:06;;;;;;;6.97;2.20;;;10.20;99.90;;;;;;4992276;28;20767;-57
2022/09/18 05:05:32;;;;;;;6.00;1.90;;;10.20;99.90;;;;;;4991284;28;20741;-56
2022/09/18 05:08:01;;;;;;;5.40;2.00;;;10.20;99.90;;;;;;4991761;28;21358;-56
2022/09/18 05:10:27;;;;;;;5.57;2.20;;;10.20;99.90;;;;;;4989282;28;20407;-56
2022/09/18 05:12:53;;;;;;;10.23;2.60;;;10.20;99.90;;;;;;4991845;28;20422;-57
2022/09/18 05:15:20;;;;;;;5.57;2.30;;;11.00;99.90;;;;;;4990764;28;20429;-56
2022/09/18 05:17:46;;;;;;;7.60;2.30;;;10.20;99.90;;;;;;4991422;28;20386;-57
2022/09/18 05:20:13;;;;;;;8.30;2.30;;;10.30;99.90;;;;;;4991477;28;20499;-56
2022/09/18 05:22:38;;;;;;;6.03;2.20;;;10.20;99.90;;;;;;4991270;28;20915;-57
2022/09/18 05:25:04;;;;;;;6.38;2.30;;;10.20;99.90;;;;;;4991314;28;20395;-56
2022/09/18 05:27:30;;;;;;;7.20;2.30;;;10.20;99.90;;;;;;4990593;28;20395;-56
2022/09/18 05:29:55;;;;;;;6.18;2.30;;;10.30;99.90;;;;;;4991125;28;20395;-56
2022/09/18 05:32:21;;;;;;;5.53;2.07;;;10.30;99.90;;;;;;4991026;28;20768;-56
2022/09/18 05:34:48;;;;;;;7.90;2.47;;;10.40;99.90;;;;;;4991356;28;20416;-56
2022/09/18 05:37:15;;;;;;;5.80;2.50;;;10.30;99.90;;;;;;4990720;28;20395;-56
2022/09/18 05:39:41;;;;;;;7.40;2.20;;;10.30;99.90;;;;;;4990691;28;20730;-56
2022/09/18 05:42:07;;;;;;;8.27;2.63;;;10.20;99.90;;;;;;4991204;28;20391;-56
2022/09/18 05:44:32;;;;;;;9.00;2.63;;;10.20;99.90;;;;;;4990732;28;20405;-56
2022/09/18 05:46:58;;;;;;;6.00;2.60;;;10.10;99.90;;;;;;4991706;28;20394;-57
2022/09/18 05:49:24;;;;;;;6.13;2.60;;;10.20;99.90;;;;;;4990302;28;20386;-56
2022/09/18 05:51:49;;;;;;;6.25;2.70;;;10.20;99.90;;;;;;4991113;28;20843;-56
2022/09/18 05:54:15;;;;;;;4.90;2.10;;;10.20;99.90;;;;;;4989845;28;20437;-56
2022/09/18 05:56:41;;;;;;;6.82;2.60;;;10.20;99.90;;;;;;4990692;28;20390;-57
2022/09/18 05:59:06;;;;;;;9.00;2.70;;;10.30;99.90;;;;;;4990555;28;20923;-56
2022/09/18 06:01:32;;;;;;;7.78;2.70;;;10.40;99.90;;;;;;4989278;28;20426;-57
2022/09/18 06:03:58;;;;;;;7.53;2.83;;;10.50;99.90;;;;;;4988199;28;20414;-57
2022/09/18 06:06:27;;;;;;;6.05;2.67;;;10.30;99.90;;;;;;4986724;28;20458;-56
2022/09/18 06:08:52;;;;;;;9.60;2.70;;;10.30;99.90;;;;;;4990493;28;20395;-56
2022/09/18 06:11:18;;;;;;;6.50;3.00;;;10.50;99.90;;;;;;4990504;28;20939;-57
2022/09/18 06:13:47;;;;;;;7.63;2.90;;;10.60;99.90;;;;;;4990623;28;20414;-57
2022/09/18 06:16:14;;;;;;;7.03;3.00;;;10.70;99.90;;;;;;4989376;28;20402;-57
2022/09/18 06:18:40;;;;;;;8.45;3.10;;;10.70;99.90;;;;;;4990750;28;20379;-57
2022/09/18 06:21:06;;;;;;;7.33;2.73;;;10.60;99.90;;;;;;4990323;28;20721;-57
2022/09/18 06:23:31;;;;;;;6.78;2.70;;;10.70;99.90;;;;;;4990028;28;20401;-57
2022/09/18 06:26:05;;;;;;;6.25;2.60;;;10.80;99.90;;;;;;4986138;28;20391;-57
2022/09/18 06:28:31;;;;;;;7.30;2.40;;;10.60;99.90;;;;;;4983903;28;20514;-57
2022/09/18 06:30:58;;;;;;;6.90;2.95;;;10.50;99.90;;;;;;4990044;28;20413;-57
2022/09/18 06:33:23;;;;;;;8.00;3.20;;;10.40;99.90;;;;;;4987986;28;20918;-56
2022/09/18 06:35:49;;;;;;;8.27;3.20;;;10.50;99.90;;;;;;4984248;28;20379;-57
2022/09/18 06:38:15;;;;;;;7.15;2.90;;;10.60;99.90;;;;;;4987753;28;20856;-57
2022/09/18 06:40:48;;;;;;;9.10;2.83;;;10.70;99.90;;;;;;4988595;28;20405;-57
2022/09/18 06:43:14;;;;;;;8.20;3.13;;;10.70;99.90;;;;;;4987158;28;20419;-56
2022/09/18 06:45:39;;;;;;;7.50;3.20;;;10.70;99.90;;;;;;4976577;28;20406;-56
2022/09/18 06:48:06;;;;;;;8.37;4.00;;;10.70;99.90;;;;;;4970405;28;20418;-57
2022/09/18 06:50:31;;;;;;;7.23;2.80;;;10.70;99.90;;;;;;4984477;28;20734;-57
2022/09/18 06:53:01;;;;;;;6.90;3.10;;;10.70;99.90;;;;;;4983663;28;20414;-57
2022/09/18 06:55:27;;;;;;;7.43;2.97;;;10.80;99.90;;;;;;4970145;28;20807;-57
2022/09/18 06:57:57;;;;;;;10.17;2.90;;;10.70;99.90;;;;;;4980504;28;20423;-57
2022/09/18 07:00:23;;;;;;;7.22;3.10;;;10.70;99.90;;;;;;4981041;28;20963;-56
2022/09/18 07:03:00;;;;;;;7.75;3.30;;;10.70;99.90;;;;;;4986254;28;20426;-57
2022/09/18 07:05:29;;;;;;;6.03;2.60;;;10.80;99.90;;;;;;4987674;28;20394;-56
2022/09/18 07:07:55;;;;;;;5.40;2.22;;;10.70;99.90;;;;;;4989393;28;20383;-57
2022/09/18 07:10:22;;;;;;;7.07;2.67;;;10.70;99.90;;;;;;4990243;28;20393;-57
2022/09/18 07:12:48;;;;;;;7.35;2.67;;;10.80;99.90;;;;;;4990542;28;20394;-57
2022/09/18 07:15:18;;;;;;;10.50;2.60;;;10.80;99.90;;;;;;4989364;28;20391;-57
2022/09/18 07:17:45;;;;;;;7.70;2.50;;;12.00;99.90;;;;;;4989870;28;21281;-56
2022/09/18 07:20:12;;;;;;;5.80;2.40;;;10.80;99.90;;;;;;4990655;28;20414;-57
2022/09/18 07:22:39;;;;;;;7.18;2.60;;;10.80;99.90;;;;;;4989440;28;20386;-57
2022/09/18 07:25:05;;;;;;;8.05;2.85;;;10.90;99.90;;;;;;4990659;28;20387;-57
2022/09/18 07:27:31;;;;;;;7.77;2.37;;;10.80;99.90;;;;;;4989360;28;20398;-57
2022/09/18 07:29:57;;;;;;;7.55;2.35;;;10.90;99.90;;;;;;4990658;28;20382;-56
2022/09/18 07:32:24;;;;;;;6.75;2.33;;;11.10;99.90;;;;;;4988818;28;20749;-56
2022/09/18 07:34:49;;;;;;;5.50;1.70;;;11.10;99.90;;;;;;4989834;28;20872;-56
2022/09/18 07:37:16;;;;;;;7.70;2.20;;;11.10;96.40;;;;;;4989295;28;20389;-56
2022/09/18 07:39:43;;;;;;;7.93;2.15;;;11.20;99.90;;;;;;4990121;28;20477;-56
2022/09/18 07:42:09;;;;;;;5.60;2.00;;;11.40;99.90;;;;;;4989825;28;20914;-56
2022/09/18 07:44:35;;;;;;;6.07;2.10;;;11.40;84.20;;;;;;4972484;28;20743;-56
2022/09/18 07:47:01;;;;;;;5.40;2.20;;;11.50;4.90;;;;;;4993389;28;20386;-56
2022/09/18 07:49:26;;;;;;;5.45;1.90;;;11.30;1.00;;;;;;4993006;28;20717;-56
2022/09/18 07:51:52;;;;;;;5.20;1.95;;;11.20;8.30;;;;;;4993587;28;20458;-56
2022/09/18 07:54:18;;;;;;;5.20;1.90;;;11.30;16.20;;;;;;4992788;28;20398;-56
2022/09/18 07:56:44;;;;;;;5.90;1.55;;;11.30;12.60;;;;;;4994059;28;20409;-57
2022/09/18 07:59:10;;;;;;;7.93;1.80;;;11.20;1.00;;;;;;4993900;28;20389;-56
2022/09/18 08:01:36;;;;;;;5.70;2.10;;;11.50;1.00;;;;;;4992374;28;20402;-56
2022/09/18 08:04:02;;;;;;;7.68;2.13;;;11.70;1.00;;;;;;4993341;28;20399;-56
2022/09/18 08:06:29;;;;;;;6.40;2.30;;;11.90;1.00;;;;;;4992577;28;20422;-56
2022/09/18 08:08:55;;;;;;;4.80;1.60;;;12.00;1.00;;;;;;4992970;28;20462;-56
2022/09/18 08:11:21;;;;;;;5.10;2.10;;;12.00;1.00;;;;;;4992695;28;20394;-56
2022/09/18 08:13:50;;;;;;;4.70;1.60;;;11.90;1.00;;;;;;4992713;28;20417;-56
2022/09/18 08:16:16;;;;;;;4.97;1.70;;;11.70;1.00;;;;;;4991844;28;20418;-56
2022/09/18 08:18:41;;;;;;;6.15;2.00;;;11.60;1.00;;;;;;4973736;28;20410;-57
2022/09/18 08:21:07;;;;;;;5.57;1.90;;;11.60;1.00;;;;;;4988188;28;20446;-57
2022/09/18 08:23:34;;;;;;;5.73;1.80;;;11.60;1.00;;;;;;4987720;28;20410;-57
2022/09/18 08:26:00;;;;;;;5.57;1.60;;;11.70;1.00;;;;;;4988095;28;20407;-57
2022/09/18 08:28:26;;;;;;;6.78;1.85;;;11.80;1.00;;;;;;4987122;28;20489;-57
2022/09/18 08:30:52;;;;;;;4.90;1.70;;;11.90;1.00;;;;;;4986879;28;20505;-55
2022/09/18 08:33:18;;;;;;;5.30;1.48;;;11.70;1.00;;;;;;4979646;28;20418;-55
2022/09/18 08:35:44;;;;;;;5.38;1.50;;;12.20;1.00;;;;;;4989691;28;20391;-58
2022/09/18 08:38:10;;;;;;;8.32;2.00;;;12.20;1.00;;;;;;4956076;28;20865;-58
2022/09/18 08:40:59;;;;;;;6.23;1.93;;;12.20;1.00;;;;;;4973902;28;21130;-57
2022/09/18 08:43:46;;;;;;;5.60;1.70;;;12.20;1.00;;;;;;4983254;28;20415;-57
2022/09/18 08:46:25;;;;;;;4.85;1.50;;;12.50;1.00;;;;;;4993008;28;20394;-57
2022/09/18 08:49:26;;;;;;;5.30;1.50;;;12.70;99.90;;;;;;4982873;28;20402;-57
2022/09/18 08:52:16;;;;;;;6.53;1.80;;;12.50;99.90;;;;;;4973117;28;20512;-57
2022/09/18 08:54:48;;;;;;;7.80;2.00;;;12.50;99.90;;;;;;4984304;28;20498;-55
2022/09/18 08:57:53;;;;;;;8.65;2.15;;;12.70;99.90;;;;;;4991372;28;20422;-54
2022/09/18 09:00:35;;;;;;;5.50;2.00;;;12.50;99.90;;;;;;4876847;29;20439;-57
2022/09/18 09:03:00;;;;;;;7.93;2.30;;;12.40;1.00;;;;;;4978838;28;20439;-57
2022/09/18 09:05:36;;;;;;;8.15;2.03;;;12.30;1.00;;;;;;4980663;28;20440;-57
2022/09/18 09:08:21;;;;;;;5.90;1.90;;;12.20;1.00;;;;;;4982635;28;20407;-57
2022/09/18 09:11:08;;;;;;;5.70;2.10;;;12.10;1.00;;;;;;4978647;28;20878;-57
2022/09/18 09:14:01;;;;;;;8.45;2.10;;;12.10;1.00;;;;;;4986115;28;20498;-57
2022/09/18 09:16:32;;;;;;;7.43;2.20;;;12.30;1.00;;;;;;4972203;28;20401;-57
2022/09/18 09:19:18;;;;;;;6.78;2.10;;;12.20;1.00;;;;;;4972798;28;20831;-57
2022/09/18 09:21:58;;;;;;;6.80;2.30;;;12.20;1.00;;;;;;4982388;28;20415;-57
2022/09/18 09:24:40;;;;;;;5.95;1.80;;;12.30;1.00;;;;;;4990459;28;20888;-55
2022/09/18 09:27:18;;;;;;;6.60;2.00;;;12.40;1.00;;;;;;4988607;28;21049;-57
2022/09/18 09:29:45;;;;;;;6.00;1.90;;;12.30;99.90;;;;;;4990230;28;20401;-57
2022/09/18 09:32:35;;;;;;;5.75;1.58;;;12.20;1.00;;;;;;4991174;28;20457;-57
2022/09/18 09:35:17;;;;;;;5.70;1.85;;;12.40;99.90;;;;;;4981641;28;20417;-55
2022/09/18 09:37:45;;;;;;;5.38;1.90;;;12.40;99.90;;;;;;4985241;28;20489;-55
2022/09/18 09:40:24;;;;;;;7.13;2.40;;;12.50;1.00;;;;;;4982157;28;20421;-55
2022/09/18 09:42:58;;;;;;;7.10;1.73;;;12.80;99.90;;;;;;4986557;28;20920;-55
2022/09/18 09:45:32;;;;;;;8.17;1.90;;;12.70;99.90;;;;;;4984960;28;20833;-55
2022/09/18 09:48:23;;;;;;;7.73;2.00;;;12.70;99.90;;;;;;4986787;28;20426;-55
2022/09/18 09:50:54;;;;;;;6.80;1.90;;;12.90;99.90;;;;;;4983425;28;20747;-55
2022/09/18 09:53:23;;;;;;;5.75;1.90;;;12.90;99.90;;;;;;4984675;28;20424;-54
2022/09/18 09:56:13;;;;;;;6.82;1.80;;;12.90;1.00;;;;;;4988824;28;20398;-54
2022/09/18 09:58:53;;;;;;;7.35;2.00;;;12.50;36.50;;;;;;4987634;28;20414;-56
2022/09/18 10:01:34;;;;;;;5.90;1.92;;;12.50;99.90;;;;;;4987588;28;20431;-57
2022/09/18 10:04:26;;;;;;;6.83;1.60;;;12.60;99.90;;;;;;4987036;28;20453;-55
2022/09/18 10:06:57;;;;;;;7.80;1.60;;;12.70;99.90;;;;;;4980066;28;20394;-54
2022/09/18 10:09:33;;;;;;;5.45;1.50;;;12.80;41.10;;;;;;4986032;28;20409;-54
2022/09/18 10:12:14;;;;;;;6.30;1.80;;;13.00;99.40;;;;;;4990650;28;20387;-57
2022/09/18 10:14:43;;;;;;;7.03;2.30;;;13.30;1.00;;;;;;4990297;28;20402;-54
2022/09/18 10:17:11;;;;;;;5.38;1.60;;;13.90;1.00;;;;;;4989840;28;20378;-57
2022/09/18 10:19:39;;;;;;;7.40;1.40;;;14.10;1.00;;;;;;4990190;28;20791;-54
2022/09/18 10:22:08;;;;;;;8.88;1.70;;;13.60;99.90;;;;;;4991158;28;20418;-53
2022/09/18 10:24:41;;;;;;;7.77;1.77;;;13.80;1.00;;;;;;4990195;28;20469;-54
2022/09/18 10:27:10;;;;;;;7.33;2.43;;;13.80;1.00;;;;;;4990850;28;20428;-54
2022/09/18 10:29:36;;;;;;;7.85;1.70;;;13.80;1.00;;;;;;4988977;28;20402;-54
2022/09/18 10:32:03;;;;;;;5.82;1.33;;;13.90;1.00;;;;;;4977443;28;20912;-54
2022/09/18 10:34:46;;;;;;;5.47;1.60;;;14.00;7.90;;;;;;4984168;28;20409;-54
2022/09/18 10:37:15;;;;;;;5.68;1.60;;;14.30;99.90;;;;;;4985339;28;20426;-54
2022/09/18 10:39:52;;;;;;;5.22;1.40;;;14.70;1.00;;;;;;4988586;28;20406;-54
2022/09/18 10:42:24;;;;;;;6.47;1.40;;;14.80;99.90;;;;;;4989948;28;20927;-55
2022/09/18 10:44:57;;;;;;;10.65;1.80;;;15.30;99.90;;;;;;4989687;28;20382;-55
2022/09/18 10:47:29;;;;;;;4.93;1.10;;;15.10;1.00;;;;;;4975208;28;20418;-56
2022/09/18 10:49:58;;;;;;;5.93;1.30;;;15.60;1.00;;;;;;4985103;28;20627;-56
2022/09/18 10:52:34;;;;;;;7.40;1.30;;;15.70;99.90;;;;;;4979450;28;20448;-56
2022/09/18 10:55:06;;;;;;;6.70;1.40;;;15.70;99.90;;;;;;4981771;28;20770;-55
2022/09/18 10:57:37;;;;;;;5.53;1.10;;;15.60;99.90;;;;;;4986737;28;20399;-56
2022/09/18 11:00:24;;;;;;;8.70;1.35;;;15.60;99.90;;;;;;4979529;28;20747;-55
2022/09/18 11:02:57;;;;;;;6.93;1.20;;;15.80;99.90;;;;;;4981084;28;20418;-55
2022/09/18 11:05:25;;;;;;;7.68;1.63;;;15.60;99.80;;;;;;4983760;28;20395;-55
2022/09/18 11:07:53;;;;;;;8.90;0.95;;;15.70;58.80;;;;;;4985224;28;20485;-55
2022/09/18 11:10:22;;;;;;;6.90;1.10;;;15.70;1.00;;;;;;4979713;28;20410;-56
2022/09/18 11:12:55;;;;;;;6.93;1.10;;;16.10;1.00;;;;;;4981863;28;20420;-56
2022/09/18 11:15:24;;;;;;;6.60;1.00;;;16.00;1.00;;;;;;4987646;28;20497;-56
2022/09/18 11:17:56;;;;;;;4.80;1.00;;;16.10;1.00;;;;;;4983722;28;20513;-56
2022/09/18 11:20:26;;;;;;;6.20;1.10;;;16.10;1.00;;;;;;4987291;28;20458;-55
2022/09/18 11:22:52;;;;;;;8.55;1.33;;;16.20;1.00;;;;;;4992587;28;20386;-57
2022/09/18 11:25:26;;;;;;;6.57;1.10;;;16.70;1.00;;;;;;4992677;28;20453;-57
2022/09/18 11:27:58;;;;;;;4.40;0.73;;;16.80;1.00;;;;;;4991609;28;20851;-58
2022/09/18 11:30:30;;;;;;;5.50;1.10;;;16.60;1.00;;;;;;4979078;28;20522;-57
2022/09/18 11:33:13;;;;;;;6.10;0.70;;;16.00;1.00;;;;;;4993387;28;20422;-57
2022/09/18 11:35:44;;;;;;;5.50;1.00;;;15.80;1.00;;;;;;4987123;28;20764;-57
2022/09/18 11:38:18;;;;;;;5.47;1.00;;;16.10;1.00;;;;;;4989448;28;20418;-58
2022/09/18 11:40:49;;;;;;;4.95;0.90;;;16.40;1.00;;;;;;4968318;28;20934;-58
2022/09/18 11:43:25;;;;;;;6.03;0.97;;;17.10;1.00;;;;;;4984577;28;20402;-58
2022/09/18 11:46:10;;;;;;;5.57;0.90;;;17.30;1.00;;;;;;4980855;28;20469;-58
2022/09/18 11:48:41;;;;;;;7.15;1.20;;;17.40;1.00;;;;;;4988834;28;20903;-58
2022/09/18 11:51:25;;;;;;;5.10;1.20;;;17.20;1.00;;;;;;4987440;28;20902;-58
2022/09/18 11:54:01;;;;;;;5.57;1.10;;;16.60;1.00;;;;;;4990527;28;20903;-58
2022/09/18 11:56:45;;;;;;;5.57;0.95;;;16.40;1.00;;;;;;4989891;28;20478;-58
2022/09/18 11:59:16;;;;;;;7.20;1.27;;;16.30;1.00;;;;;;4987021;28;20881;-58
2022/09/18 12:01:48;;;;;;;6.10;0.90;;;16.20;1.00;;;;;;4987761;28;20448;-58
2022/09/18 12:04:19;;;;;;;5.82;1.10;;;15.90;1.00;;;;;;4979003;28;20465;-58
2022/09/18 12:07:08;;;;;;;6.88;1.00;;;16.00;1.00;;;;;;4991209;28;20588;-58
2022/09/18 12:09:52;;;;;;;4.70;0.95;;;15.90;1.00;;;;;;4989281;28;20422;-59
2022/09/18 12:12:32;;;;;;;5.10;1.10;;;15.70;1.00;;;;;;4990166;28;20473;-57
2022/09/18 12:15:15;;;;;;;6.88;1.10;;;16.10;1.00;;;;;;4990053;28;20474;-58
2022/09/18 12:17:55;;;;;;;6.82;0.90;;;16.20;1.00;;;;;;4990156;28;20489;-56
2022/09/18 12:20:23;;;;;;;4.50;0.80;;;16.20;99.90;;;;;;4988400;28;20473;-58
2022/09/18 12:22:54;;;;;;;6.28;0.88;;;16.10;99.90;;;;;;4988077;28;20448;-57
2022/09/18 12:25:44;;;;;;;6.50;0.90;;;16.10;99.90;;;;;;4990521;28;20478;-57
2022/09/18 12:28:29;;;;;;;4.90;1.20;;;15.90;99.90;;;;;;4992009;28;20382;-58
2022/09/18 12:31:06;;;;;;;6.10;0.90;;;15.40;99.90;;;;;;4990003;28;20410;-58
2022/09/18 12:33:47;;;;;;;7.03;1.00;;;15.60;99.90;;;;;;4990579;28;20426;-58
2022/09/18 12:36:56;;;;;;;4.88;1.00;;;15.80;99.90;;;;;;4989560;28;20406;-58
2022/09/18 12:39:34;;;;;;;4.80;0.90;;;15.80;99.90;;;;;;4977079;28;20444;-58
2022/09/18 12:42:20;;;;;;;6.90;1.20;;;15.80;99.90;;;;;;4973551;28;20477;-58
2022/09/18 12:45:19;;;;;;;5.20;0.90;;;15.90;99.90;;;;;;4972370;28;20866;-58
2022/09/18 12:48:12;;;;;;;5.13;1.00;;;15.70;99.90;;;;;;4972246;28;20475;-58
2022/09/18 12:51:00;;;;;;;5.60;1.00;;;15.90;99.90;;;;;;4955168;28;20400;-58
2022/09/18 12:53:49;;;;;;;5.90;1.10;;;16.10;99.90;;;;;;4972324;28;20467;-58
2022/09/18 12:56:35;;;;;;;4.90;0.80;;;15.80;99.90;;;;;;4977223;28;20398;-58
2022/09/18 12:59:30;;;;;;;6.03;1.00;;;15.70;99.90;;;;;;4991676;28;20438;-58
2022/09/18 13:02:05;;;;;;;6.00;1.30;;;15.20;99.90;;;;;;4992104;28;20880;-55
2022/09/18 13:04:44;;;;;;;7.10;1.38;;;14.80;99.90;;;;;;4988525;28;20394;-55
2022/09/18 13:07:21;;;;;;;5.90;0.90;;;14.90;99.90;;;;;;4991695;28;20391;-55
2022/09/18 13:09:55;;;;;;;5.90;1.00;;;14.60;99.90;;;;;;4988242;28;20505;-55
2022/09/18 13:12:42;;;;;;;5.83;0.97;;;14.70;99.90;;;;;;4991324;28;20891;-55
2022/09/18 13:15:25;;;;;;;4.78;0.77;;;14.80;99.90;;;;;;4989174;28;20896;-56